FW1463 Weather Reports


Display with metric or nautical units.
time (UTC)temp
F
wind
direction
speed
MPH
gust
MPH
rain 1hr
in
rain 24hr
in
rain mn
in
humidity
%
barometer
mb
20190722233603 81 111 5.0 13.0 0.00 0.00 0.00 79 1016.7
20190722233403 81 106 4.0 13.0 0.00 0.00 0.00 78 1016.7
20190722233203 81 99 5.0 9.0 0.00 0.00 0.00 77 1016.7
20190722233005 82 94 5.0 10.0 0.00 0.00 0.00 76 1016.7
20190722232803 82 94 5.0 10.0 0.00 0.00 0.00 75 1016.8
20190722232607 82 99 5.0 10.0 0.00 0.00 0.00 74 1016.7
20190722232403 82 102 6.0 10.0 0.00 0.00 0.00 73 1016.9
20190722232203 83 99 6.0 11.0 0.00 0.00 0.00 72 1016.8
20190722232004 84 95 5.0 11.0 0.00 0.00 0.00 71 1016.8
20190722231804 84 86 4.0 11.0 0.00 0.00 0.00 70 1016.9
20190722231603 85 73 4.0 11.0 0.00 0.00 0.00 68 1016.9
20190722231203 87 32 2.0 11.0 0.00 0.00 0.00 64 1016.8
20190722231004 87 315 2.0 5.0 0.00 0.00 0.00 61 1016.6
20190722230803 87 295 2.0 5.0 0.00 0.00 0.00 62 1016.5
20190722230604 87 288 2.0 4.0 0.00 0.00 0.00 61 1016.3
20190722230404 87 287 3.0 6.0 0.00 0.00 0.00 64 1016.2
20190722230203 87 289 3.0 6.0 0.00 0.00 0.00 65 1016.1
20190722230003 87 288 3.0 6.0 0.00 0.00 0.00 64 1016.1
20190722225804 87 289 3.0 6.0 0.00 0.00 0.00 64 1016.0
20190722225603 87 289 4.0 7.0 0.00 0.00 0.00 66 1015.8
20190722225404 87 292 4.0 7.0 0.00 0.00 0.00 64 1015.9
20190722225203 87 291 4.0 7.0 0.00 0.00 0.00 63 1015.8
20190722225004 87 291 4.0 7.0 0.00 0.00 0.00 63 1015.7
20190722224803 87 290 4.0 7.0 0.00 0.00 0.00 65 1015.8
20190722224604 87 289 4.0 8.0 0.00 0.00 0.00 65 1015.6
20190722224403 87 288 4.0 8.0 0.00 0.00 0.00 66 1015.8
20190722224203 87 288 4.0 8.0 0.00 0.00 0.00 66 1015.8
20190722224004 87 287 5.0 8.0 0.00 0.00 0.00 65 1015.8
20190722223803 87 283 4.0 8.0 0.00 0.00 0.00 63 1015.8
20190722223603 87 286 4.0 7.0 0.00 0.00 0.00 63 1015.9
20190722223403 87 286 4.0 7.0 0.00 0.00 0.00 64 1016.0
20190722223203 87 290 4.0 7.0 0.00 0.00 0.00 62 1016.0
20190722223004 87 292 5.0 8.0 0.00 0.00 0.00 64 1016.0
20190722222803 87 295 6.0 9.0 0.00 0.00 0.00 64 1016.0
20190722222603 87 294 6.0 9.0 0.00 0.00 0.00 65 1015.9
20190722222403 87 295 6.0 9.0 0.00 0.00 0.00 65 1015.9
20190722222204 87 297 6.0 9.0 0.00 0.00 0.00 65 1016.0
20190722222003 87 297 6.0 9.0 0.00 0.00 0.00 64 1016.0
20190722221803 88 297 5.0 9.0 0.00 0.00 0.00 64 1016.0
20190722221603 88 296 5.0 9.0 0.00 0.00 0.00 65 1015.9
20190722221404 88 294 5.0 9.0 0.00 0.00 0.00 64 1015.9
20190722221203 88 287 5.0 9.0 0.00 0.00 0.00 66 1015.8
20190722221004 88 288 5.0 9.0 0.00 0.00 0.00 63 1015.8
20190722220803 88 286 5.0 10.0 0.00 0.00 0.00 65 1015.7
20190722220603 88 284 5.0 10.0 0.00 0.00 0.00 64 1015.6
20190722220403 88 285 5.0 10.0 0.00 0.00 0.00 66 1015.7
20190722220203 88 287 5.0 10.0 0.00 0.00 0.00 66 1015.6
20190722220004 88 285 5.0 10.0 0.00 0.00 0.00 66 1015.5
20190722215803 88 287 5.0 8.0 0.00 0.00 0.00 66 1015.5
20190722215603 88 290 4.0 8.0 0.00 0.00 0.00 65 1015.6
20190722215404 88 291 4.0 8.0 0.00 0.00 0.00 65 1015.5
20190722215203 88 290 4.0 8.0 0.00 0.00 0.00 65 1015.5
20190722215004 88 291 4.0 8.0 0.00 0.00 0.00 65 1015.6
20190722214803 88 288 4.0 7.0 0.00 0.00 0.00 66 1015.5
20190722214604 88 287 5.0 7.0 0.00 0.00 0.00 67 1015.5
20190722214403 88 288 5.0 8.0 0.00 0.00 0.00 66 1015.5
20190722214203 88 288 5.0 8.0 0.00 0.00 0.00 66 1015.4
20190722214003 88 289 5.0 9.0 0.00 0.00 0.00 64 1015.4
20190722213804 88 291 5.0 9.0 0.00 0.00 0.00 67 1015.4
20190722213603 88 292 5.0 9.0 0.00 0.00 0.00 64 1015.5
20190722213404 88 294 5.0 9.0 0.00 0.00 0.00 66 1015.5
20190722213203 88 294 5.0 9.0 0.00 0.00 0.00 66 1015.4
20190722213004 88 294 5.0 9.0 0.00 0.00 0.00 66 1015.4
20190722212803 88 294 4.0 9.0 0.00 0.00 0.00 68 1015.4
20190722212604 88 294 4.0 9.0 0.00 0.00 0.00 68 1015.3
20190722212403 88 293 4.0 8.0 0.00 0.00 0.00 68 1015.3
20190722212204 88 289 4.0 7.0 0.00 0.00 0.00 68 1015.4
20190722212003 88 291 4.0 8.0 0.00 0.00 0.00 69 1015.4
20190722211804 88 292 5.0 9.0 0.00 0.00 0.00 69 1015.4
20190722211603 87 290 5.0 9.0 0.00 0.00 0.00 69 1015.2
20190722211404 87 284 5.0 9.0 0.00 0.00 0.00 67 1015.2
20190722211204 87 283 4.0 9.0 0.00 0.00 0.00 70 1015.3
20190722211004 87 280 5.0 9.0 0.00 0.00 0.00 70 1015.4
20190722210803 87 280 4.0 9.0 0.00 0.00 0.00 69 1015.3
20190722210604 87 275 4.0 9.0 0.00 0.00 0.00 68 1015.4
20190722210403 87 280 5.0 10.0 0.00 0.00 0.00 69 1015.4
20190722210203 87 282 5.0 10.0 0.00 0.00 0.00 68 1015.3
20190722210004 87 282 5.0 10.0 0.00 0.00 0.00 70 1015.4
20190722205803 87 278 5.0 11.0 0.00 0.00 0.00 70 1015.5
20190722205604 87 280 5.0 11.0 0.00 0.00 0.00 72 1015.5
20190722205403 87 277 5.0 11.0 0.00 0.00 0.00 71 1015.5
20190722205204 87 285 5.0 11.0 0.00 0.00 0.00 70 1015.5
20190722205003 87 284 6.0 11.0 0.00 0.00 0.00 70 1015.6
20190722204803 87 287 6.0 10.0 0.00 0.00 0.00 73 1015.5
20190722204603 87 287 6.0 11.0 0.00 0.00 0.00 72 1015.6
20190722204403 87 289 6.0 11.0 0.00 0.00 0.00 72 1015.6
20190722204203 87 283 6.0 11.0 0.00 0.00 0.00 72 1015.7
20190722204004 87 286 6.0 11.0 0.00 0.00 0.00 72 1015.7
20190722203803 87 287 6.0 11.0 0.00 0.00 0.00 71 1015.7
20190722203603 87 287 6.0 10.0 0.00 0.00 0.00 72 1015.7
20190722203403 86 284 6.0 11.0 0.00 0.00 0.00 74 1015.8
20190722203204 86 284 5.0 11.0 0.00 0.00 0.00 72 1015.8
20190722203003 86 279 6.0 11.0 0.00 0.00 0.00 72 1015.8
20190722202804 86 278 6.0 12.0 0.00 0.00 0.00 73 1015.9
20190722202603 86 281 7.0 12.0 0.00 0.00 0.00 74 1015.8
20190722202404 86 283 7.0 12.0 0.00 0.00 0.00 74 1015.9
20190722202203 85 284 8.0 12.0 0.00 0.00 0.00 75 1015.9
20190722202004 85 286 7.0 12.0 0.00 0.00 0.00 74 1015.9
20190722201803 85 285 7.0 12.0 0.00 0.00 0.00 74 1016.0
20190722201603 85 285 7.0 12.0 0.00 0.00 0.00 74 1015.9
20190722201403 85 284 7.0 12.0 0.00 0.00 0.00 75 1016.0
20190722201203 85 283 7.0 12.0 0.00 0.00 0.00 75 1016.0
20190722201004 85 282 7.0 12.0 0.00 0.00 0.00 73 1016.0
20190722200804 85 282 6.0 12.0 0.00 0.00 0.00 75 1016.1
20190722200603 85 282 6.0 12.0 0.00 0.00 0.00 75 1016.1
20190722200403 85 283 6.0 11.0 0.00 0.00 0.00 74 1016.1
20190722200203 85 285 6.0 11.0 0.00 0.00 0.00 76 1016.1
20190722200005 86 285 6.0 11.0 0.00 0.00 0.00 75 1016.1
20190722195803 86 285 6.0 12.0 0.00 0.00 0.00 75 1016.1
20190722195603 86 283 6.0 12.0 0.00 0.00 0.00 76 1016.1
20190722195404 85 279 6.0 12.0 0.00 0.00 0.00 78 1016.1
20190722195203 85 276 7.0 12.0 0.00 0.00 0.00 78 1016.1
20190722195004 85 276 7.0 12.0 0.00 0.00 0.00 78 1016.2
20190722194803 85 279 7.0 12.0 0.00 0.00 0.00 78 1016.2
20190722194603 85 281 7.0 12.0 0.00 0.00 0.00 78 1016.2
20190722194405 85 283 7.0 12.0 0.00 0.00 0.00 77 1016.3
20190722194203 86 285 6.0 12.0 0.00 0.00 0.00 77 1016.3
20190722194004 86 283 6.0 11.0 0.00 0.00 0.00 76 1016.5
20190722193803 86 278 6.0 11.0 0.00 0.00 0.00 77 1016.5
20190722193603 86 277 5.0 11.0 0.00 0.00 0.00 77 1016.6
20190722193403 86 274 4.0 11.0 0.00 0.00 0.00 78 1016.6
20190722193203 86 275 5.0 11.0 0.00 0.00 0.00 76 1016.6
20190722193004 87 281 5.0 10.0 0.00 0.00 0.00 76 1016.6
20190722192804 86 283 5.0 10.0 0.00 0.00 0.00 79 1016.6
20190722192603 86 278 5.0 10.0 0.00 0.00 0.00 78 1016.7
20190722192404 86 278 5.0 10.0 0.00 0.00 0.00 78 1016.6
20190722192203 86 274 4.0 10.0 0.00 0.00 0.00 76 1016.8
20190722192004 86 267 4.0 8.0 0.00 0.00 0.00 79 1016.9
20190722191803 86 271 4.0 11.0 0.00 0.00 0.00 76 1016.9
20190722191604 86 275 4.0 11.0 0.00 0.00 0.00 79 1016.9
20190722191403 86 276 4.0 11.0 0.00 0.00 0.00 78 1016.9
20190722191204 86 276 4.0 11.0 0.00 0.00 0.00 79 1017.0
20190722191005 86 278 4.0 11.0 0.00 0.00 0.00 78 1017.0
20190722190804 86 275 3.0 10.0 0.00 0.00 0.00 79 1017.0
20190722190604 86 273 3.0 10.0 0.00 0.00 0.00 80 1017.0
20190722190404 86 273 4.0 10.0 0.00 0.00 0.00 79 1017.0
20190722190203 86 273 4.0 10.0 0.00 0.00 0.00 79 1017.0
20190722190004 85 270 4.0 9.0 0.00 0.00 0.00 79 1017.0
20190722185803 85 270 4.0 9.0 0.00 0.00 0.00 78 1016.9
20190722185603 85 270 4.0 9.0 0.00 0.00 0.00 79 1017.0
20190722185403 85 270 3.0 8.0 0.00 0.00 0.00 78 1017.0
20190722185204 85 269 3.0 7.0 0.00 0.00 0.00 80 1017.1
20190722185004 85 269 3.0 7.0 0.00 0.00 0.00 80 1017.0
20190722184803 85 268 3.0 7.0 0.00 0.00 0.00 81 1017.1
20190722184604 85 264 3.0 7.0 0.00 0.00 0.00 80 1017.0
20190722184403 85 264 4.0 7.0 0.00 0.00 0.00 80 1017.0
20190722184203 85 272 5.0 12.0 0.00 0.00 0.00 80 1017.0
20190722184003 84 277 6.0 12.0 0.00 0.00 0.00 81 1017.0
20190722183804 84 279 6.0 14.0 0.00 0.00 0.00 80 1017.1
20190722183603 84 281 7.0 14.0 0.00 0.00 0.00 81 1017.0
20190722183403 84 280 6.0 14.0 0.00 0.00 0.00 80 1017.1
20190722183204 84 277 6.0 14.0 0.00 0.00 0.00 80 1017.0
20190722183003 84 276 5.0 14.0 0.00 0.00 0.00 79 1017.0
20190722182803 84 271 5.0 10.0 0.00 0.00 0.00 80 1017.0
20190722182603 84 270 5.0 12.0 0.00 0.00 0.00 81 1017.0
20190722182404 84 270 5.0 12.0 0.00 0.00 0.00 81 1017.0
20190722182203 84 270 5.0 12.0 0.00 0.00 0.00 81 1017.1
20190722182004 84 272 5.0 12.0 0.00 0.00 0.00 81 1017.0
20190722181803 84 277 5.0 12.0 0.00 0.00 0.00 80 1017.1
20190722181604 84 280 5.0 12.0 0.00 0.00 0.00 80 1017.1
20190722181403 84 285 6.0 14.0 0.00 0.00 0.00 81 1017.1
20190722181203 84 286 7.0 14.0 0.00 0.00 0.00 81 1017.2
20190722181004 84 284 6.0 14.0 0.00 0.00 0.00 82 1017.2
20190722180804 84 282 7.0 14.0 0.00 0.00 0.00 83 1017.2
20190722180604 84 282 7.0 14.0 0.00 0.00 0.00 82 1017.1
20190722180403 84 281 7.0 13.0 0.00 0.00 0.00 81 1017.2
20190722180203 84 282 7.0 14.0 0.00 0.00 0.00 82 1017.3
20190722180004 84 285 8.0 14.0 0.00 0.00 0.00 82 1017.4
20190722175803 84 287 8.0 14.0 0.00 0.00 0.00 81 1017.4
20190722175604 84 287 8.0 14.0 0.00 0.00 0.00 80 1017.5
20190722175403 84 284 8.0 14.0 0.00 0.00 0.00 81 1017.5
20190722175204 84 281 7.0 14.0 0.00 0.00 0.00 81 1017.6
20190722175003 84 278 7.0 12.0 0.00 0.00 0.00 82 1017.6
20190722174803 84 279 8.0 14.0 0.00 0.00 0.00 81 1017.5
20190722174603 84 281 7.0 14.0 0.00 0.00 0.00 80 1017.6
20190722174404 84 283 7.0 14.0 0.00 0.00 0.00 81 1017.6
20190722174203 84 285 7.0 14.0 0.00 0.00 0.00 81 1017.5
20190722174006 84 287 7.0 14.0 0.00 0.00 0.00 80 1017.5
20190722173803 85 287 7.0 13.0 0.00 0.00 0.00 80 1017.5
20190722173604 85 286 7.0 13.0 0.00 0.00 0.00 81 1017.5
20190722173403 85 286 8.0 13.0 0.00 0.00 0.00 82 1017.6
20190722173204 85 285 7.0 13.0 0.00 0.00 0.00 81 1017.5
20190722173004 85 283 7.0 13.0 0.00 0.00 0.00 82 1017.5
20190722172804 85 282 7.0 12.0 0.00 0.00 0.00 82 1017.3
20190722172603 85 285 7.0 11.0 0.00 0.00 0.00 82 1017.4
20190722172404 85 286 7.0 12.0 0.00 0.00 0.00 81 1017.4
20190722172203 84 290 8.0 14.0 0.00 0.00 0.00 81 1017.4
20190722172004 84 292 8.0 14.0 0.00 0.00 0.00 81 1017.5
20190722171803 84 290 8.0 14.0 0.00 0.00 0.00 81 1017.5
20190722171604 85 287 7.0 14.0 0.00 0.00 0.00 80 1017.5
20190722171403 85 283 7.0 14.0 0.00 0.00 0.00 79 1017.5
20190722171204 86 281 6.0 12.0 0.00 0.00 0.00 78 1017.5
20190722171003 86 280 5.0 12.0 0.00 0.00 0.00 76 1017.6
20190722170804 87 281 4.0 9.0 0.00 0.00 0.00 74 1017.6
20190722170603 88 289 3.0 9.0 0.00 0.00 0.00 73 1017.6
20190722170404 89 306 2.0 9.0 0.00 0.00 0.00 70 1017.6
20190722170203 90 95 2.0 8.0 0.00 0.00 0.00 62 1017.7
20190722170004 91 105 1.0 6.0 0.00 0.00 0.00 57 1017.6
20190722165803 91 109 1.0 6.0 0.00 0.00 0.00 57 1017.6
20190722165604 92 120 1.0 6.0 0.00 0.00 0.00 55 1017.7
20190722165403 92 132 1.0 3.0 0.00 0.00 0.00 57 1017.6
20190722165205 92 142 1.0 5.0 0.00 0.00 0.00 57 1017.6
20190722165004 91 152 1.0 5.0 0.00 0.00 0.00 61 1017.7
20190722164803 91 158 1.0 5.0 0.00 0.00 0.00 60 1017.7
20190722164603 91 179 1.0 5.0 0.00 0.00 0.00 59 1017.8
20190722164404 92 176 1.0 5.0 0.00 0.00 0.00 58 1017.8
20190722164203 92 170 2.0 10.0 0.00 0.00 0.00 61 1017.8
20190722164004 91 162 3.0 10.0 0.00 0.00 0.00 61 1017.8
20190722163803 91 161 3.0 10.0 0.00 0.00 0.00 59 1017.9
20190722163604 91 161 3.0 10.0 0.00 0.00 0.00 60 1017.9
20190722163403 91 162 3.0 10.0 0.00 0.00 0.00 60 1017.9
20190722163204 91 163 2.0 9.0 0.00 0.00 0.00 57 1017.8
20190722163004 91 168 2.0 8.0 0.00 0.00 0.00 62 1017.9
20190722162803 91 174 2.0 8.0 0.00 0.00 0.00 61 1017.9
20190722162603 91 168 2.0 8.0 0.00 0.00 0.00 59 1018.0
20190722162404 91 153 2.0 8.0 0.00 0.00 0.00 61 1018.0
20190722162203 92 156 1.0 8.0 0.00 0.00 0.00 60 1018.1
20190722162004 92 177 1.0 5.0 0.00 0.00 0.00 63 1018.1
20190722161803 91 187 1.0 5.0 0.00 0.00 0.00 62 1018.2
20190722161604 91 195 1.0 5.0 0.00 0.00 0.00 63 1018.2
20190722161403 91 195 1.0 5.0 0.00 0.00 0.00 63 1018.2
20190722161203 91 202 2.0 5.0 0.00 0.00 0.00 64 1018.2
20190722161004 91 202 2.0 5.0 0.00 0.00 0.00 62 1018.2
20190722160803 91 208 2.0 6.0 0.00 0.00 0.00 63 1018.1
20190722160604 91 196 2.0 6.0 0.00 0.00 0.00 66 1018.2
20190722160403 90 206 1.0 6.0 0.00 0.00 0.00 65 1018.2
20190722160203 90 197 1.0 6.0 0.00 0.00 0.00 65 1018.3
20190722160004 90 192 1.0 6.0 0.00 0.00 0.00 63 1018.3
20190722155803 90 160 1.0 6.0 0.00 0.00 0.00 65 1018.4
20190722155603 90 150 1.0 6.0 0.00 0.00 0.00 68 1018.3
20190722155404 90 153 1.0 6.0 0.00 0.00 0.00 68 1018.4
20190722155203 90 155 2.0 6.0 0.00 0.00 0.00 66 1018.4
20190722155004 90 153 3.0 6.0 0.00 0.00 0.00 62 1018.4
20190722154803 90 153 3.0 7.0 0.00 0.00 0.00 65 1018.5
20190722154604 90 152 3.0 7.0 0.00 0.00 0.00 66 1018.4
20190722154404 90 152 4.0 7.0 0.00 0.00 0.00 67 1018.4
20190722154203 90 151 3.0 7.0 0.00 0.00 0.00 63 1018.5
20190722154004 89 148 3.0 7.0 0.00 0.00 0.00 64 1018.4
20190722153803 90 147 2.0 7.0 0.00 0.00 0.00 67 1018.4
20190722153604 89 150 2.0 6.0 0.00 0.00 0.00 68 1018.6
20190722153403 89 148 2.0 6.0 0.00 0.00 0.00 67 1018.6
20190722153204 89 146 2.0 5.0 0.00 0.00 0.00 65 1018.6
20190722153005 89 157 2.0 5.0 0.00 0.00 0.00 67 1018.6
20190722152803 89 166 2.0 5.0 0.00 0.00 0.00 68 1018.5
20190722152603 89 165 2.0 5.0 0.00 0.00 0.00 67 1018.5
20190722152403 89 164 2.0 5.0 0.00 0.00 0.00 70 1018.5
20190722152204 88 158 2.0 5.0 0.00 0.00 0.00 69 1018.4
20190722152004 88 143 3.0 6.0 0.00 0.00 0.00 68 1018.4
20190722151803 88 136 3.0 6.0 0.00 0.00 0.00 68 1018.5
20190722151603 88 135 3.0 7.0 0.00 0.00 0.00 68 1018.6
20190722151403 88 138 3.0 7.0 0.00 0.00 0.00 68 1018.4
20190722151204 88 144 3.0 7.0 0.00 0.00 0.00 67 1018.3
20190722151004 88 149 3.0 7.0 0.00 0.00 0.00 68 1018.4
20190722150803 88 151 3.0 7.0 0.00 0.00 0.00 72 1018.4
20190722150604 88 152 3.0 7.0 0.00 0.00 0.00 72 1018.4
20190722150403 87 149 3.0 7.0 0.00 0.00 0.00 72 1018.4
20190722150204 87 149 3.0 7.0 0.00 0.00 0.00 72 1018.3
20190722150004 87 145 4.0 7.0 0.00 0.00 0.00 70 1018.4
20190722145803 87 132 4.0 7.0 0.00 0.00 0.00 72 1018.5
20190722145604 87 127 4.0 7.0 0.00 0.00 0.00 72 1018.6
20190722145404 87 126 4.0 7.0 0.00 0.00 0.00 72 1018.4
20190722145203 87 126 4.0 7.0 0.00 0.00 0.00 74 1018.4
20190722145004 87 134 4.0 7.0 0.00 0.00 0.00 73 1018.3
20190722144804 87 149 4.0 7.0 0.00 0.00 0.00 73 1018.3
20190722144603 87 158 4.0 8.0 0.00 0.00 0.00 73 1018.2
20190722144404 87 162 4.0 8.0 0.00 0.00 0.00 73 1018.3
20190722144204 87 158 4.0 8.0 0.00 0.00 0.00 75 1018.2
20190722144004 86 157 4.0 8.0 0.00 0.00 0.00 74 1018.2
20190722143803 86 158 3.0 8.0 0.00 0.00 0.00 75 1018.2
20190722143604 86 161 3.0 7.0 0.00 0.00 0.00 73 1018.2
20190722143403 87 160 2.0 7.0 0.00 0.00 0.00 73 1018.2
20190722143203 87 161 2.0 7.0 0.00 0.00 0.00 74 1018.1
20190722143003 86 159 2.0 6.0 0.00 0.00 0.00 76 1018.1
20190722142803 86 145 3.0 6.0 0.00 0.00 0.00 77 1018.0
20190722142604 86 139 3.0 6.0 0.00 0.00 0.00 77 1018.0
20190722142403 86 136 3.0 7.0 0.00 0.00 0.00 77 1018.0
20190722142203 86 128 3.0 7.0 0.00 0.00 0.00 77 1018.1
20190722142004 85 125 4.0 7.0 0.00 0.00 0.00 79 1018.1
20190722141803 85 135 4.0 7.0 0.00 0.00 0.00 76 1018.0
20190722141604 85 136 4.0 7.0 0.00 0.00 0.00 76 1018.1
20190722141403 85 137 3.0 6.0 0.00 0.00 0.00 78 1018.1
20190722141204 85 140 4.0 6.0 0.00 0.00 0.00 78 1018.1
20190722141003 85 139 3.0 6.0 0.00 0.00 0.00 78 1018.2
20190722140803 85 137 3.0 6.0 0.00 0.00 0.00 80 1018.1
20190722140603 85 134 3.0 6.0 0.00 0.00 0.00 81 1018.1
20190722140403 85 132 3.0 6.0 0.00 0.00 0.00 79 1018.1
20190722140203 85 134 3.0 6.0 0.00 0.00 0.00 79 1018.1
20190722140004 85 141 3.0 6.0 0.00 0.00 0.00 79 1018.2
20190722135804 85 140 3.0 6.0 0.00 0.00 0.00 80 1018.1
20190722135603 84 140 3.0 6.0 0.00 0.00 0.00 81 1018.1
20190722135404 84 145 3.0 7.0 0.00 0.00 0.00 81 1018.2
20190722135204 84 146 3.0 7.0 0.00 0.00 0.00 81 1018.3
20190722135004 84 140 3.0 7.0 0.00 0.00 0.00 82 1018.1
20190722134803 84 134 3.0 7.0 0.00 0.00 0.00 82 1018.2
20190722134604 84 136 3.0 7.0 0.00 0.00 0.00 82 1018.1
20190722134404 84 133 3.0 6.0 0.00 0.00 0.00 83 1018.1
20190722134203 84 134 3.0 6.0 0.00 0.00 0.00 83 1018.2
20190722134004 83 139 3.0 6.0 0.00 0.00 0.00 82 1018.1
20190722133803 83 148 3.0 6.0 0.00 0.00 0.00 82 1018.1
20190722133603 83 152 3.0 6.0 0.00 0.00 0.00 83 1018.0
20190722133403 83 152 3.0 6.0 0.00 0.00 0.00 84 1017.9
20190722133204 83 144 3.0 6.0 0.00 0.00 0.00 84 1017.9
20190722133007 83 138 3.0 6.0 0.00 0.00 0.00 84 1017.9
20190722132803 83 137 3.0 6.0 0.00 0.00 0.00 85 1017.8
20190722132604 82 135 3.0 6.0 0.00 0.00 0.00 85 1017.8
20190722132404 82 129 3.0 6.0 0.00 0.00 0.00 85 1017.7
20190722132203 82 130 3.0 6.0 0.00 0.00 0.00 85 1017.7
20190722132004 82 134 3.0 6.0 0.00 0.00 0.00 85 1017.8
20190722131804 82 130 3.0 6.0 0.00 0.00 0.00 86 1017.8
20190722131604 82 120 3.0 6.0 0.00 0.00 0.00 86 1017.7
20190722131403 82 120 3.0 6.0 0.00 0.00 0.00 86 1017.7
20190722131204 81 119 3.0 6.0 0.00 0.00 0.00 86 1017.7
20190722131004 81 109 3.0 5.0 0.00 0.00 0.00 87 1017.7
20190722130803 81 106 3.0 6.0 0.00 0.00 0.00 87 1017.7
20190722130604 81 106 3.0 6.0 0.00 0.00 0.00 87 1017.7
20190722130404 81 105 3.0 6.0 0.00 0.00 0.00 87 1017.7
20190722130203 80 98 3.0 6.0 0.00 0.00 0.00 87 1017.7
20190722130004 80 101 3.0 6.0 0.00 0.00 0.00 88 1017.7
20190722125803 80 98 3.0 6.0 0.00 0.00 0.00 87 1017.7
20190722125603 80 103 3.0 6.0 0.00 0.00 0.00 88 1017.8
20190722125403 80 105 3.0 6.0 0.00 0.00 0.00 88 1017.8
20190722125204 80 111 2.0 6.0 0.00 0.00 0.00 88 1017.8
20190722125004 80 105 2.0 6.0 0.00 0.00 0.00 89 1017.8
20190722124803 80 103 2.0 6.0 0.00 0.00 0.00 89 1017.9
20190722124603 79 102 3.0 6.0 0.00 0.00 0.00 89 1017.7
20190722124404 79 102 3.0 6.0 0.00 0.00 0.00 90 1017.7
20190722124203 79 104 3.0 6.0 0.00 0.00 0.00 90 1017.7
20190722124004 79 108 3.0 6.0 0.00 0.00 0.00 90 1017.7
20190722123803 79 108 3.0 6.0 0.00 0.00 0.00 90 1017.6
20190722123604 78 108 3.0 6.0 0.00 0.00 0.00 90 1017.7
20190722123404 78 101 3.0 6.0 0.00 0.00 0.00 91 1017.6
20190722123203 78 92 3.0 6.0 0.00 0.00 0.00 91 1017.6
20190722123004 78 88 3.0 6.0 0.00 0.00 0.00 91 1017.6
20190722122804 78 85 3.0 6.0 0.00 0.00 0.00 92 1017.5
20190722122603 78 82 3.0 6.0 0.00 0.00 0.00 91 1017.5
20190722122404 78 83 3.0 6.0 0.00 0.00 0.00 92 1017.4
20190722122204 78 86 3.0 6.0 0.00 0.00 0.00 92 1017.6
20190722122004 77 87 3.0 6.0 0.00 0.00 0.00 92 1017.4
20190722121804 77 86 3.0 6.0 0.00 0.00 0.00 92 1017.5
20190722121604 77 86 3.0 6.0 0.00 0.00 0.00 93 1017.4
20190722121403 77 84 3.0 6.0 0.00 0.00 0.00 93 1017.4
20190722121204 77 83 4.0 7.0 0.00 0.00 0.00 93 1017.4
20190722121004 77 82 4.0 7.0 0.00 0.00 0.00 94 1017.4
20190722120803 77 82 3.0 7.0 0.00 0.00 0.00 94 1017.3
20190722120604 76 83 3.0 7.0 0.00 0.00 0.00 94 1017.3
20190722120403 76 88 2.0 7.0 0.00 0.00 0.00 94 1017.3
20190722120204 76 92 2.0 5.0 0.00 0.00 0.00 95 1017.3
20190722120004 76 99 2.0 5.0 0.00 0.00 0.00 95 1017.3
20190722115804 76 99 1.0 5.0 0.00 0.00 0.00 95 1017.3
20190722115604 76 103 2.0 5.0 0.00 0.00 0.00 95 1017.2
20190722115403 76 91 2.0 4.0 0.00 0.00 0.00 96 1017.2
20190722115204 76 89 2.0 5.0 0.00 0.00 0.00 96 1017.3
20190722115003 76 85 2.0 5.0 0.00 0.00 0.00 96 1017.2
20190722114803 75 86 2.0 5.0 0.00 0.00 0.00 96 1017.2
20190722114604 75 86 2.0 6.0 0.00 0.00 0.00 96 1017.1
20190722114404 75 87 2.0 6.0 0.00 0.00 0.00 96 1017.2
20190722114203 75 85 1.0 6.0 0.00 0.00 0.00 97 1017.1
20190722114004 75 87 1.0 6.0 0.00 0.00 0.00 97 1017.1
20190722113803 75 88 1.0 6.0 0.00 0.00 0.00 97 1017.1
20190722113604 75 83 1.0 3.0 0.00 0.00 0.00 97 1017.1
20190722113404 75 83 1.0 3.0 0.00 0.00 0.00 97 1017.2
20190722113203 74 81 1.0 3.0 0.00 0.00 0.00 97 1017.1
20190722113004 74 78 1.0 3.0 0.00 0.00 0.00 97 1017.1
20190722112803 74 83 1.0 3.0 0.00 0.00 0.00 97 1017.0
20190722112604 74 0 0.0 3.0 0.00 0.00 0.00 97 1017.0
20190722112403 74 0 0.0 3.0 0.00 0.00 0.00 97 1017.0
20190722112204 74 0 0.0 3.0 0.00 0.00 0.00 97 1017.1
20190722112004 74 0 0.0 3.0 0.00 0.00 0.00 97 1017.0
20190722111804 74 0 0.0 3.0 0.00 0.00 0.00 97 1016.9
20190722111603 74 0 0.0 3.0 0.00 0.00 0.00 97 1016.9
20190722111403 74 0 0.0 3.0 0.00 0.00 0.00 97 1016.9
20190722111203 74 0 0.0 2.0 0.00 0.00 0.00 97 1016.8
20190722111004 73 0 0.0 3.0 0.00 0.00 0.00 97 1017.0
20190722110803 73 86 1.0 3.0 0.00 0.00 0.00 97 1016.9
20190722110603 73 85 1.0 3.0 0.00 0.00 0.00 97 1016.9
20190722110404 73 84 1.0 3.0 0.00 0.00 0.00 97 1016.9
20190722110203 73 84 1.0 3.0 0.00 0.00 0.00 97 1016.9
20190722110005 73 84 1.0 2.0 0.00 0.00 0.00 97 1016.9
20190722105804 73 81 1.0 2.0 0.00 0.00 0.00 97 1016.8
20190722105603 73 82 1.0 2.0 0.00 0.00 0.00 97 1016.9
20190722105404 73 0 0.0 2.0 0.00 0.00 0.00 97 1016.9
20190722105204 73 0 0.0 2.0 0.00 0.00 0.00 97 1016.9
20190722105004 73 0 0.0 2.0 0.00 0.00 0.00 97 1016.8
20190722104804 73 0 0.0 2.0 0.00 0.00 0.00 97 1016.9
20190722104604 73 0 0.0 1.0 0.00 0.00 0.00 97 1016.9
20190722104403 73 0 0.0 1.0 0.00 0.00 0.00 97 1016.9
20190722104204 73 0 0.0 1.0 0.00 0.00 0.00 97 1016.9
20190722104004 73 0 0.0 1.0 0.00 0.00 0.00 97 1017.0
20190722103804 73 0 0.0 1.0 0.00 0.00 0.00 97 1017.0
20190722103604 73 0 0.0 1.0 0.00 0.00 0.00 97 1017.0
20190722103403 73 0 0.0 1.0 0.00 0.00 0.00 97 1017.0
20190722103204 73 0 0.0 1.0 0.00 0.00 0.00 97 1017.0
20190722103004 73 0 0.0 1.0 0.00 0.00 0.00 97 1017.0
20190722102803 73 0 0.0 0.0 0.00 0.00 0.00 97 1016.9
20190722102604 73 0 0.0 1.0 0.00 0.00 0.00 97 1017.0
20190722102403 73 0 0.0 1.0 0.00 0.00 0.00 97 1017.0
20190722102203 73 0 0.0 1.0 0.00 0.00 0.00 97 1017.0
20190722102004 73 0 0.0 1.0 0.00 0.00 0.00 97 1017.0
20190722101804 73 0 0.0 1.0 0.00 0.00 0.00 97 1016.9
20190722101604 73 0 0.0 1.0 0.00 0.00 0.00 97 1017.0
20190722101403 73 0 0.0 1.0 0.00 0.00 0.00 97 1017.0
20190722101204 73 0 0.0 1.0 0.00 0.00 0.00 97 1017.0
20190722101004 73 0 0.0 1.0 0.00 0.00 0.00 97 1017.0
20190722100804 73 0 0.0 1.0 0.00 0.00 0.00 97 1017.0
20190722100604 73 0 0.0 1.0 0.00 0.00 0.00 97 1017.0
20190722100404 73 0 0.0 1.0 0.00 0.00 0.00 97 1016.9
20190722100204 73 0 0.0 1.0 0.00 0.00 0.00 97 1017.0
20190722100004 73 0 0.0 1.0 0.00 0.00 0.00 97 1017.0
20190722095803 73 0 0.0 1.0 0.00 0.00 0.00 97 1017.0
20190722095604 73 0 0.0 1.0 0.00 0.00 0.00 97 1017.0
20190722095403 73 0 0.0 2.0 0.00 0.00 0.00 97 1016.9
20190722095204 73 0 0.0 2.0 0.00 0.00 0.00 97 1016.9
20190722095004 73 83 1.0 3.0 0.00 0.00 0.00 97 1016.9
20190722094803 73 83 1.0 3.0 0.00 0.00 0.00 97 1016.8
20190722094603 73 84 1.0 3.0 0.00 0.00 0.00 97 1016.8
20190722094404 73 83 1.0 3.0 0.00 0.00 0.00 97 1016.7
20190722094203 73 81 1.0 3.0 0.00 0.00 0.00 97 1016.7
20190722094004 73 83 1.0 4.0 0.00 0.00 0.00 97 1016.7
20190722093804 73 82 1.0 4.0 0.00 0.00 0.00 97 1016.8
20190722093604 73 81 1.0 4.0 0.00 0.00 0.00 97 1016.7
20190722093404 73 82 1.0 4.0 0.00 0.00 0.00 97 1016.7
20190722093204 73 82 1.0 4.0 0.00 0.00 0.00 97 1016.7
20190722093005 73 0 0.0 3.0 0.00 0.00 0.00 97 1016.7
20190722092803 73 90 1.0 3.0 0.00 0.00 0.00 97 1016.8
20190722092604 73 99 1.0 3.0 0.00 0.00 0.00 97 1016.8
20190722092404 73 94 1.0 3.0 0.00 0.00 0.00 97 1016.7
20190722092204 73 97 1.0 3.0 0.00 0.00 0.00 97 1016.7
20190722092003 73 96 1.0 3.0 0.00 0.00 0.00 97 1016.7
20190722091804 73 90 1.0 3.0 0.00 0.00 0.00 97 1016.8
20190722091603 73 83 1.0 3.0 0.00 0.00 0.00 97 1016.8
20190722091404 73 84 1.0 3.0 0.00 0.00 0.00 98 1016.7
20190722091204 73 83 1.0 3.0 0.00 0.00 0.00 98 1016.7
20190722091004 73 81 1.0 3.0 0.00 0.00 0.00 98 1016.8
20190722090803 73 80 1.0 3.0 0.00 0.00 0.00 98 1016.8
20190722090604 73 79 1.0 3.0 0.00 0.00 0.00 98 1016.7
20190722090403 73 78 1.0 3.0 0.00 0.00 0.00 98 1016.7
20190722090204 73 78 2.0 3.0 0.00 0.00 0.00 98 1016.7
20190722090003 73 78 2.0 3.0 0.00 0.00 0.00 98 1016.7
20190722085803 73 82 1.0 3.0 0.00 0.00 0.00 98 1016.8
20190722085603 73 82 1.0 3.0 0.00 0.00 0.00 98 1016.8
20190722085404 73 83 1.0 3.0 0.00 0.00 0.00 98 1016.8
20190722085204 73 85 1.0 3.0 0.00 0.00 0.00 98 1016.9
20190722085005 73 0 0.0 2.0 0.00 0.00 0.00 98 1016.8
20190722084803 73 0 0.0 2.0 0.00 0.00 0.00 98 1016.8
20190722084604 73 0 0.0 2.0 0.00 0.00 0.00 98 1016.8
20190722084403 73 0 0.0 1.0 0.00 0.00 0.00 98 1016.8
20190722084204 73 0 0.0 2.0 0.00 0.00 0.00 98 1016.8
20190722084003 73 0 0.0 2.0 0.00 0.00 0.00 98 1016.8
20190722083804 73 0 0.0 2.0 0.00 0.00 0.00 98 1016.9
20190722083603 73 0 0.0 2.0 0.00 0.00 0.00 98 1016.9
20190722083403 73 0 0.0 2.0 0.00 0.00 0.00 98 1017.0
20190722083204 73 0 0.0 2.0 0.00 0.00 0.00 98 1016.9
20190722083004 73 0 0.0 2.0 0.00 0.00 0.00 98 1016.9
20190722082803 73 0 0.0 2.0 0.00 0.00 0.00 98 1016.9
20190722082604 73 0 0.0 2.0 0.00 0.00 0.00 98 1016.9
20190722082403 73 0 0.0 2.0 0.00 0.00 0.00 98 1016.9
20190722082204 73 0 0.0 2.0 0.00 0.00 0.00 98 1017.0
20190722082004 73 0 0.0 2.0 0.00 0.00 0.00 98 1017.0
20190722081803 73 0 0.0 2.0 0.00 0.00 0.00 98 1017.0
20190722081603 73 0 0.0 2.0 0.00 0.00 0.00 98 1016.9
20190722081403 73 0 0.0 2.0 0.00 0.00 0.00 98 1016.9
20190722081205 73 0 0.0 2.0 0.00 0.00 0.00 98 1017.0
20190722081003 73 0 0.0 2.0 0.00 0.00 0.00 98 1017.0
20190722080804 73 0 0.0 2.0 0.00 0.00 0.00 98 1017.0
20190722080603 73 0 0.0 2.0 0.00 0.00 0.00 97 1017.0
20190722080404 73 0 0.0 2.0 0.00 0.00 0.00 97 1017.0
20190722080204 73 0 0.0 0.0 0.00 0.00 0.00 97 1017.1
20190722080004 73 0 0.0 0.0 0.00 0.00 0.00 98 1017.1
20190722075804 73 0 0.0 0.0 0.00 0.00 0.00 98 1017.2
20190722075603 73 0 0.0 0.0 0.00 0.00 0.00 98 1017.2
20190722075404 73 0 0.0 0.0 0.00 0.00 0.00 98 1017.2
20190722075204 73 0 0.0 0.0 0.00 0.00 0.00 98 1017.2
20190722075005 73 0 0.0 0.0 0.00 0.00 0.00 98 1017.2
20190722074804 73 0 0.0 0.0 0.00 0.00 0.00 97 1017.1
20190722074603 73 0 0.0 0.0 0.00 0.00 0.00 97 1017.2
20190722074404 73 0 0.0 0.0 0.00 0.00 0.00 97 1017.2
20190722074204 73 0 0.0 0.0 0.00 0.00 0.00 97 1017.2
20190722074004 73 0 0.0 0.0 0.00 0.00 0.00 97 1017.2
20190722073803 73 0 0.0 0.0 0.00 0.00 0.00 97 1017.2
20190722073603 73 0 0.0 0.0 0.00 0.00 0.00 98 1017.2
20190722073404 73 0 0.0 0.0 0.00 0.00 0.00 98 1017.2
20190722073204 73 0 0.0 0.0 0.00 0.00 0.00 98 1017.3
20190722073004 73 0 0.0 0.0 0.00 0.00 0.00 98 1017.3
20190722072803 73 0 0.0 0.0 0.00 0.00 0.00 97 1017.3
20190722072603 73 0 0.0 0.0 0.00 0.00 0.00 97 1017.3
20190722072404 73 0 0.0 0.0 0.00 0.00 0.00 97 1017.3
20190722072204 73 0 0.0 0.0 0.00 0.00 0.00 97 1017.4
20190722072004 73 0 0.0 0.0 0.00 0.00 0.00 97 1017.4
20190722071804 73 0 0.0 0.0 0.00 0.00 0.00 97 1017.4
20190722071604 73 0 0.0 0.0 0.00 0.00 0.00 97 1017.3
20190722071403 73 0 0.0 0.0 0.00 0.00 0.00 97 1017.2
20190722071204 73 0 0.0 0.0 0.00 0.00 0.00 97 1017.2
20190722071003 73 0 0.0 0.0 0.00 0.00 0.00 97 1017.0
20190722070804 73 0 0.0 0.0 0.00 0.00 0.00 97 1017.1
20190722070603 73 0 0.0 0.0 0.00 0.00 0.00 97 1017.0
20190722070403 73 0 0.0 0.0 0.00 0.00 0.00 97 1017.1
20190722070203 73 0 0.0 0.0 0.00 0.00 0.00 97 1017.1
20190722070005 73 0 0.0 0.0 0.00 0.00 0.00 97 1017.0
20190722065804 73 0 0.0 0.0 0.00 0.00 0.00 97 1017.1
20190722065604 73 0 0.0 0.0 0.00 0.00 0.00 97 1017.2
20190722065404 73 0 0.0 0.0 0.00 0.00 0.00 97 1017.2
20190722065204 73 0 0.0 0.0 0.00 0.00 0.00 97 1017.1
20190722065004 73 0 0.0 0.0 0.00 0.00 0.00 97 1017.2
20190722064804 73 0 0.0 0.0 0.00 0.00 0.00 97 1017.3
20190722064604 73 0 0.0 0.0 0.00 0.00 0.00 97 1017.3
20190722064404 73 0 0.0 0.0 0.00 0.00 0.00 97 1017.3
20190722064203 73 0 0.0 0.0 0.00 0.00 0.00 97 1017.4
20190722064004 73 0 0.0 0.0 0.00 0.00 0.00 97 1017.5
20190722063803 73 0 0.0 0.0 0.00 0.00 0.00 97 1017.5
20190722063603 74 0 0.0 0.0 0.00 0.00 0.00 97 1017.6
20190722063404 74 0 0.0 0.0 0.00 0.00 0.00 97 1017.5
20190722063203 74 0 0.0 0.0 0.00 0.00 0.00 97 1017.5
20190722063005 74 0 0.0 0.0 0.00 0.00 0.00 97 1017.5
20190722062803 74 0 0.0 0.0 0.00 0.00 0.00 97 1017.5
20190722062603 74 0 0.0 0.0 0.00 0.00 0.00 97 1017.5
20190722062403 74 0 0.0 0.0 0.00 0.00 0.00 97 1017.5
20190722062203 74 0 0.0 0.0 0.00 0.00 0.00 97 1017.6
20190722062004 74 0 0.0 0.0 0.00 0.00 0.00 97 1017.6
20190722061804 74 0 0.0 0.0 0.00 0.00 0.00 97 1017.7
20190722061603 74 0 0.0 0.0 0.00 0.00 0.00 97 1017.6
20190722061403 74 0 0.0 0.0 0.00 0.00 0.00 97 1017.6
20190722061203 74 0 0.0 0.0 0.00 0.00 0.00 97 1017.7
20190722061005 74 0 0.0 0.0 0.00 0.00 0.00 97 1017.7
20190722060804 74 0 0.0 0.0 0.00 0.00 0.00 97 1017.7
20190722060604 74 0 0.0 0.0 0.00 0.00 0.00 97 1017.7
20190722060404 74 0 0.0 0.0 0.00 0.00 0.00 97 1017.7
20190722060204 74 0 0.0 0.0 0.00 0.00 0.00 97 1017.7
20190722060005 74 0 0.0 0.0 0.00 0.00 0.00 97 1017.7
20190722055803 74 0 0.0 0.0 0.00 0.00 0.00 97 1017.8
20190722055604 74 0 0.0 0.0 0.00 0.00 0.00 97 1017.8
20190722055404 74 0 0.0 0.0 0.00 0.00 0.00 97 1017.8
20190722055203 74 0 0.0 0.0 0.00 0.00 0.00 97 1018.0
20190722055005 74 0 0.0 0.0 0.00 0.00 0.00 97 1017.9
20190722054804 74 0 0.0 0.0 0.00 0.00 0.00 97 1017.8
20190722054603 74 0 0.0 0.0 0.00 0.00 0.00 97 1017.9
20190722054404 74 0 0.0 0.0 0.00 0.00 0.00 97 1017.9
20190722054203 74 0 0.0 0.0 0.00 0.00 0.00 97 1018.0
20190722054004 74 0 0.0 0.0 0.00 0.00 0.00 97 1017.9
20190722053803 74 0 0.0 0.0 0.00 0.00 0.00 97 1018.0
20190722053604 74 0 0.0 0.0 0.00 0.00 0.00 97 1018.1
20190722053403 74 0 0.0 0.0 0.00 0.00 0.00 97 1018.0
20190722053204 74 0 0.0 0.0 0.00 0.00 0.00 97 1018.1
20190722053004 74 0 0.0 0.0 0.00 0.00 0.00 97 1018.1
20190722052804 74 0 0.0 0.0 0.00 0.00 0.00 97 1018.0
20190722052603 74 0 0.0 0.0 0.00 0.00 0.00 97 1018.0
20190722052403 74 0 0.0 1.0 0.00 0.00 0.00 97 1018.0
20190722052204 74 0 0.0 1.0 0.00 0.00 0.00 97 1018.1
20190722052005 74 0 0.0 1.0 0.00 0.00 0.00 97 1018.0
20190722051803 74 0 0.0 1.0 0.00 0.00 0.00 97 1018.1
20190722051603 74 0 0.0 1.0 0.00 0.00 0.00 97 1018.0
20190722051404 74 0 0.0 1.0 0.00 0.00 0.00 97 1018.1
20190722051203 74 0 0.0 1.0 0.00 0.00 0.00 97 1018.2
20190722051004 74 0 0.0 1.0 0.00 0.00 0.00 97 1018.0
20190722050803 74 0 0.0 1.0 0.00 0.00 0.00 97 1018.1
20190722050604 74 0 0.0 1.0 0.00 0.00 0.00 97 1018.0
20190722050403 74 0 0.0 1.0 0.00 0.00 0.00 97 1018.0
20190722050204 74 0 0.0 1.0 0.00 0.00 0.00 97 1018.1
20190722050004 74 0 0.0 1.0 0.00 0.00 0.00 97 1018.1
20190722045804 74 0 0.0 1.0 0.00 0.00 0.00 97 1018.0
20190722045603 74 0 0.0 1.0 0.00 0.00 0.00 97 1018.1
20190722045404 74 0 0.0 1.0 0.00 0.00 0.00 97 1018.2
20190722045204 74 0 0.0 1.0 0.00 0.00 0.00 97 1018.1
20190722045004 74 0 0.0 1.0 0.00 0.00 0.00 97 1018.2
20190722044803 74 0 0.0 1.0 0.00 0.00 0.00 97 1018.2
20190722044604 74 0 0.0 1.0 0.00 0.00 0.00 97 1018.2
20190722044404 74 0 0.0 1.0 0.00 0.00 0.00 97 1018.2
20190722044204 74 0 0.0 1.0 0.00 0.00 0.00 97 1018.1
20190722044004 74 0 0.0 1.0 0.00 0.00 0.00 97 1018.2
20190722043804 74 0 0.0 1.0 0.00 0.00 0.00 97 1018.2
20190722043603 74 0 0.0 1.0 0.00 0.00 0.00 97 1018.2
20190722043403 74 0 0.0 0.0 0.00 0.00 0.00 97 1018.2
20190722043204 74 0 0.0 0.0 0.00 0.00 0.00 97 1018.2
20190722043004 74 0 0.0 0.0 0.00 0.00 0.00 97 1018.2
20190722042804 74 0 0.0 0.0 0.00 0.00 0.00 96 1018.2
20190722042604 74 0 0.0 1.0 0.00 0.00 0.00 96 1018.3
20190722042404 74 0 0.0 1.0 0.00 0.00 0.00 96 1018.3
20190722042203 74 0 0.0 1.0 0.00 0.00 0.00 96 1018.3
20190722042004 74 0 0.0 1.0 0.00 0.00 0.00 96 1018.3
20190722041803 74 0 0.0 2.0 0.00 0.00 0.00 96 1018.2
20190722041603 74 0 0.0 2.0 0.00 0.00 0.00 96 1018.2
20190722041404 74 0 0.0 2.0 0.00 0.00 0.00 96 1018.2
20190722041203 74 0 0.0 2.0 0.00 0.00 0.00 96 1018.3
20190722041004 74 0 0.0 2.0 0.00 0.00 0.00 96 1018.2
20190722040803 74 0 0.0 1.0 0.00 0.00 0.00 96 1018.2
20190722040604 74 0 0.0 1.0 0.00 0.00 0.00 96 1018.2
20190722040404 74 0 0.0 1.0 0.00 0.00 0.00 96 1018.2
20190722040203 74 0 0.0 1.0 0.00 0.00 0.00 96 1018.2
20190722040050 74 0 0.0 1.0 0.00 0.00 0.00 96 1018.3
20190722035803 74 0 0.0 1.0 0.00 0.00 0.00 96 1018.2
20190722035603 74 0 0.0 1.0 0.00 0.00 0.00 96 1018.2
20190722035404 74 0 0.0 1.0 0.00 0.00 0.00 96 1018.2
20190722035203 74 0 0.0 3.0 0.00 0.00 0.00 96 1018.1
20190722035004 74 0 0.0 3.0 0.00 0.00 0.00 96 1018.2
20190722034803 74 0 0.0 3.0 0.00 0.00 0.00 96 1018.2
20190722034604 74 0 0.0 3.0 0.00 0.00 0.00 96 1018.2
20190722034403 74 0 0.0 3.0 0.00 0.00 0.00 96 1018.2
20190722034204 74 0 0.0 2.0 0.00 0.00 0.00 96 1018.1
20190722034003 74 0 0.0 2.0 0.00 0.00 0.00 96 1018.1
20190722033804 74 0 0.0 1.0 0.00 0.00 0.00 96 1018.2
20190722033603 74 0 0.0 1.0 0.00 0.00 0.00 96 1018.1
20190722033404 74 0 0.0 0.0 0.00 0.00 0.00 96 1018.2
20190722033203 74 0 0.0 0.0 0.00 0.00 0.00 96 1018.2
20190722033004 74 0 0.0 1.0 0.00 0.00 0.00 96 1018.2
20190722032804 74 0 0.0 1.0 0.00 0.00 0.00 96 1018.2
20190722032604 74 0 0.0 1.0 0.00 0.00 0.00 96 1018.1
20190722032403 74 0 0.0 1.0 0.00 0.00 0.00 96 1018.1
20190722032204 74 0 0.0 1.0 0.00 0.00 0.00 96 1018.1
20190722032003 74 0 0.0 1.0 0.00 0.00 0.00 96 1018.1
20190722031804 74 0 0.0 1.0 0.00 0.00 0.00 96 1018.0
20190722031603 74 0 0.0 2.0 0.00 0.00 0.00 96 1018.0
20190722031404 74 0 0.0 2.0 0.00 0.00 0.00 96 1017.8
20190722031203 74 0 0.0 2.0 0.00 0.00 0.00 96 1018.0
20190722031004 74 0 0.0 2.0 0.00 0.00 0.00 96 1017.9
20190722030803 74 0 0.0 2.0 0.00 0.00 0.00 96 1017.9
20190722030604 74 0 0.0 1.0 0.00 0.00 0.00 96 1017.9
20190722030404 74 0 0.0 0.0 0.00 0.00 0.00 96 1017.8
20190722030204 74 0 0.0 1.0 0.00 0.00 0.00 96 1017.7
20190722030005 74 0 0.0 1.0 0.00 0.00 0.00 96 1017.8
20190722025803 74 0 0.0 1.0 0.00 0.00 0.00 96 1017.9
20190722025604 74 0 0.0 1.0 0.00 0.00 0.00 96 1017.9
20190722025403 74 0 0.0 1.0 0.00 0.00 0.00 96 1017.9
20190722025203 74 0 0.0 0.0 0.00 0.00 0.00 96 1018.1
20190722025003 74 0 0.0 1.0 0.00 0.00 0.00 96 1018.0
20190722024803 74 0 0.0 1.0 0.00 0.00 0.00 96 1018.0
20190722024603 74 0 0.0 1.0 0.00 0.00 0.00 96 1018.1
20190722024403 74 0 0.0 1.0 0.00 0.00 0.00 96 1018.0
20190722024204 74 0 0.0 1.0 0.00 0.00 0.00 95 1018.0
20190722024003 74 0 0.0 0.0 0.00 0.00 0.00 95 1018.0
20190722023804 74 0 0.0 0.0 0.00 0.00 0.00 95 1018.1
20190722023603 74 0 0.0 0.0 0.00 0.00 0.00 95 1018.2
20190722023404 74 0 0.0 1.0 0.00 0.00 0.00 95 1018.2
20190722023203 74 0 0.0 1.0 0.00 0.00 0.00 95 1018.3
20190722023004 74 0 0.0 1.0 0.00 0.00 0.00 95 1018.2
20190722022803 74 0 0.0 2.0 0.00 0.00 0.00 95 1018.3
20190722022603 74 0 0.0 2.0 0.00 0.00 0.00 95 1018.4
20190722022403 74 0 0.0 2.0 0.00 0.00 0.00 95 1018.4
20190722022204 74 120 1.0 2.0 0.00 0.00 0.00 95 1018.4
20190722022003 74 121 1.0 2.0 0.00 0.00 0.00 95 1018.3
20190722021803 74 120 1.0 3.0 0.00 0.00 0.00 95 1018.5
20190722021603 74 117 1.0 3.0 0.00 0.00 0.00 95 1018.4
20190722021404 74 120 1.0 3.0 0.00 0.00 0.00 95 1018.5
20190722021203 74 124 1.0 4.0 0.00 0.00 0.00 95 1018.7
20190722021004 74 128 1.0 4.0 0.00 0.00 0.00 95 1018.6
20190722020803 74 135 1.0 4.0 0.00 0.00 0.00 95 1018.7
20190722020603 74 137 1.0 4.0 0.00 0.00 0.00 95 1018.7
20190722020403 74 140 1.0 4.0 0.00 0.00 0.00 95 1018.8
20190722020204 74 137 1.0 4.0 0.00 0.00 0.00 95 1018.9
20190722020004 74 139 1.0 3.0 0.00 0.00 0.00 95 1018.8
20190722015803 74 131 1.0 3.0 0.00 0.00 0.00 95 1018.8
20190722015604 74 129 1.0 3.0 0.00 0.00 0.00 95 1018.8
20190722015403 74 128 1.0 3.0 0.00 0.00 0.00 95 1018.8
20190722015204 74 129 1.0 3.0 0.00 0.00 0.00 95 1018.7
20190722015003 74 0 0.0 3.0 0.00 0.00 0.00 95 1018.7
20190722014804 74 0 0.0 3.0 0.00 0.00 0.00 95 1018.7
20190722014603 74 0 0.0 1.0 0.00 0.00 0.00 95 1018.6
20190722014404 74 0 0.0 1.0 0.00 0.00 0.00 95 1018.6
20190722014203 74 0 0.0 1.0 0.00 0.00 0.00 95 1018.7
20190722014004 74 0 0.0 2.0 0.00 0.00 0.00 95 1018.6
20190722013803 74 0 0.0 2.0 0.00 0.00 0.00 94 1018.5
20190722013604 74 0 0.0 2.0 0.00 0.00 0.00 94 1018.5
20190722013403 74 0 0.0 2.0 0.00 0.00 0.00 94 1018.5
20190722013203 74 0 0.0 2.0 0.00 0.00 0.00 94 1018.7
20190722013003 74 0 0.0 2.0 0.00 0.00 0.00 94 1018.6
20190722012803 74 0 0.0 2.0 0.00 0.00 0.00 94 1018.7
20190722012603 74 66 1.0 2.0 0.00 0.00 0.00 94 1018.7
20190722012403 74 65 1.0 2.0 0.00 0.00 0.00 94 1018.7
20190722012203 74 61 1.0 2.0 0.00 0.00 0.00 94 1018.8
20190722012004 74 62 1.0 2.0 0.00 0.00 0.00 94 1018.8
20190722011803 74 0 0.0 2.0 0.00 0.00 0.00 94 1018.8
20190722011603 74 0 0.0 2.0 0.00 0.00 0.00 94 1018.8
20190722011403 74 0 0.0 2.0 0.00 0.00 0.00 94 1018.8
20190722011204 74 0 0.0 2.0 0.00 0.00 0.00 94 1018.7
20190722011003 74 0 0.0 2.0 0.00 0.00 0.00 94 1018.7
20190722010803 74 131 1.0 2.0 0.00 0.00 0.00 94 1018.7
20190722010603 74 143 1.0 3.0 0.00 0.00 0.00 94 1018.7
20190722010404 74 142 1.0 3.0 0.00 0.00 0.00 94 1018.7
20190722010203 74 143 1.0 3.0 0.00 0.00 0.00 94 1018.7
20190722010004 74 138 1.0 3.0 0.00 0.00 0.00 94 1018.7
20190722005803 74 138 1.0 3.0 0.00 0.00 0.00 94 1018.6
20190722005603 74 131 1.0 3.0 0.00 0.00 0.00 94 1018.7
20190722005403 74 0 0.0 2.0 0.00 0.00 0.00 94 1018.6
20190722005204 74 0 0.0 2.0 0.00 0.00 0.00 94 1018.6
20190722005004 74 129 1.0 3.0 0.00 0.00 0.00 94 1018.6
20190722004803 74 135 1.0 3.0 0.00 0.00 0.00 94 1018.7
20190722004603 74 141 1.0 3.0 0.00 0.00 0.00 94 1018.7
20190722004403 74 144 1.0 3.0 0.00 0.00 0.00 94 1018.7
20190722004204 74 145 1.0 3.0 0.00 0.00 0.00 94 1018.8
20190722004005 74 149 1.0 3.0 0.00 0.00 0.00 94 1018.7
20190722003803 74 147 1.0 3.0 0.00 0.00 0.00 94 1018.7
20190722003604 74 146 1.0 3.0 0.00 0.00 0.00 94 1018.8
20190722003403 74 142 1.0 3.0 0.00 0.00 0.00 94 1018.7
20190722003203 74 137 2.0 3.0 0.00 0.00 0.00 94 1018.8
20190722003004 74 128 2.0 5.0 0.00 0.00 0.00 93 1018.8
20190722002804 74 117 2.0 5.0 0.00 0.00 0.00 93 1018.9
20190722002603 74 113 2.0 5.0 0.00 0.00 0.00 93 1018.9
20190722002404 74 114 2.0 5.0 0.00 0.00 0.00 93 1019.0
20190722002203 74 115 2.0 5.0 0.00 0.00 0.00 93 1019.0
20190722002004 75 123 2.0 4.0 0.00 0.00 0.00 93 1019.0
20190722001804 75 135 2.0 4.0 0.00 0.00 0.00 93 1019.1
20190722001603 75 143 2.0 4.0 0.00 0.00 0.00 93 1019.1
20190722001404 75 146 3.0 6.0 0.00 0.00 0.00 93 1019.1
20190722001203 75 148 3.0 6.0 0.00 0.00 0.00 93 1018.9
20190722001004 75 149 3.0 6.0 0.00 0.00 0.00 93 1018.9
20190722000803 75 152 4.0 6.0 0.00 0.00 0.00 93 1018.9
20190722000604 75 152 4.0 6.0 0.00 0.00 0.00 93 1018.9
20190722000403 75 153 4.0 6.0 0.00 0.00 0.00 93 1018.9
20190722000203 75 152 4.0 7.0 0.00 0.00 0.00 93 1018.9
20190722000004 75 150 4.0 7.0 0.00 0.00 0.00 93 1018.8
20190721235803 75 148 4.0 7.0 0.00 0.00 0.00 93 1019.0
20190721235603 75 146 3.0 7.0 0.00 0.00 0.00 93 1019.0
20190721235403 75 145 3.0 7.0 0.00 0.00 0.00 93 1019.0
20190721235204 75 143 3.0 7.0 0.00 0.00 0.00 93 1019.0
20190721235004 75 140 3.0 5.0 0.00 0.00 0.00 93 1019.0
20190721234804 76 135 2.0 7.0 0.00 0.00 0.00 93 1019.0
20190721234603 76 137 2.0 7.0 0.00 0.00 0.00 93 1019.0
20190721234404 76 134 2.0 7.0 0.00 0.00 0.00 93 1018.9
20190721234203 76 136 2.0 7.0 0.00 0.00 0.00 92 1018.9
20190721234003 76 141 2.0 7.0 0.00 0.00 0.00 92 1018.9
20190721233804 76 146 2.0 4.0 0.00 0.00 0.00 92 1018.9